sensor_id;sensor_type;location;lat;lon;timestamp;P1;durP1;ratioP1;P2;durP2;ratioP2
59788;SDS011;47353;51.614;5.530;2022-12-10T00:01:39;73.50;;;26.97;;
59788;SDS011;47353;51.614;5.530;2022-12-10T00:04:06;76.20;;;27.03;;
59788;SDS011;47353;51.614;5.530;2022-12-10T00:06:34;73.13;;;26.03;;
59788;SDS011;47353;51.614;5.530;2022-12-10T00:09:01;73.77;;;26.60;;
59788;SDS011;47353;51.614;5.530;2022-12-10T00:11:28;74.60;;;27.40;;
59788;SDS011;47353;51.614;5.530;2022-12-10T00:13:53;71.70;;;26.77;;
59788;SDS011;47353;51.614;5.530;2022-12-10T00:16:20;75.20;;;26.87;;
59788;SDS011;47353;51.614;5.530;2022-12-10T00:18:47;69.57;;;26.13;;
59788;SDS011;47353;51.614;5.530;2022-12-10T00:21:21;72.30;;;25.77;;
59788;SDS011;47353;51.614;5.530;2022-12-10T00:23:48;66.27;;;23.50;;
59788;SDS011;47353;51.614;5.530;2022-12-10T00:26:15;69.73;;;25.40;;
59788;SDS011;47353;51.614;5.530;2022-12-10T00:28:43;70.13;;;25.77;;
59788;SDS011;47353;51.614;5.530;2022-12-10T00:31:10;71.47;;;24.47;;
59788;SDS011;47353;51.614;5.530;2022-12-10T00:33:37;77.60;;;26.87;;
59788;SDS011;47353;51.614;5.530;2022-12-10T00:36:06;85.63;;;31.20;;
59788;SDS011;47353;51.614;5.530;2022-12-10T00:38:33;79.20;;;28.97;;
59788;SDS011;47353;51.614;5.530;2022-12-10T00:40:59;76.87;;;27.60;;
59788;SDS011;47353;51.614;5.530;2022-12-10T00:43:25;83.87;;;29.50;;
59788;SDS011;47353;51.614;5.530;2022-12-10T00:45:50;82.37;;;28.87;;
59788;SDS011;47353;51.614;5.530;2022-12-10T00:48:16;76.27;;;28.73;;
59788;SDS011;47353;51.614;5.530;2022-12-10T00:50:41;80.73;;;29.60;;
59788;SDS011;47353;51.614;5.530;2022-12-10T00:53:07;78.23;;;27.10;;
59788;SDS011;47353;51.614;5.530;2022-12-10T00:55:32;78.03;;;27.87;;
59788;SDS011;47353;51.614;5.530;2022-12-10T00:57:57;82.73;;;29.27;;
59788;SDS011;47353;51.614;5.530;2022-12-10T01:00:23;81.63;;;27.83;;
59788;SDS011;47353;51.614;5.530;2022-12-10T01:02:49;73.17;;;25.93;;
59788;SDS011;47353;51.614;5.530;2022-12-10T01:05:14;75.03;;;28.33;;
59788;SDS011;47353;51.614;5.530;2022-12-10T01:07:40;78.97;;;28.80;;
59788;SDS011;47353;51.614;5.530;2022-12-10T01:10:05;85.30;;;29.63;;
59788;SDS011;47353;51.614;5.530;2022-12-10T01:12:31;82.53;;;28.70;;
59788;SDS011;47353;51.614;5.530;2022-12-10T01:14:56;82.77;;;28.73;;
59788;SDS011;47353;51.614;5.530;2022-12-10T01:17:21;85.47;;;29.63;;
59788;SDS011;47353;51.614;5.530;2022-12-10T01:19:47;89.43;;;30.10;;
59788;SDS011;47353;51.614;5.530;2022-12-10T01:22:12;86.00;;;27.87;;
59788;SDS011;47353;51.614;5.530;2022-12-10T01:24:38;75.93;;;27.10;;
59788;SDS011;47353;51.614;5.530;2022-12-10T01:27:03;90.70;;;28.80;;
59788;SDS011;47353;51.614;5.530;2022-12-10T01:29:29;86.77;;;29.10;;
59788;SDS011;47353;51.614;5.530;2022-12-10T01:31:55;91.23;;;30.43;;
59788;SDS011;47353;51.614;5.530;2022-12-10T01:34:22;86.73;;;29.37;;
59788;SDS011;47353;51.614;5.530;2022-12-10T01:36:48;75.33;;;27.50;;
59788;SDS011;47353;51.614;5.530;2022-12-10T01:39:16;68.83;;;24.10;;
59788;SDS011;47353;51.614;5.530;2022-12-10T01:41:45;88.20;;;29.20;;
59788;SDS011;47353;51.614;5.530;2022-12-10T01:46:40;82.37;;;29.87;;
59788;SDS011;47353;51.614;5.530;2022-12-10T01:49:08;90.77;;;31.17;;
59788;SDS011;47353;51.614;5.530;2022-12-10T01:51:37;83.50;;;30.20;;
59788;SDS011;47353;51.614;5.530;2022-12-10T01:54:06;90.63;;;30.63;;
59788;SDS011;47353;51.614;5.530;2022-12-10T01:56:35;82.30;;;29.50;;
59788;SDS011;47353;51.614;5.530;2022-12-10T01:59:02;90.40;;;31.43;;
59788;SDS011;47353;51.614;5.530;2022-12-10T02:12:51;86.77;;;28.87;;
59788;SDS011;47353;51.614;5.530;2022-12-10T02:17:52;81.87;;;28.40;;
59788;SDS011;47353;51.614;5.530;2022-12-10T02:20:22;85.77;;;29.43;;
59788;SDS011;47353;51.614;5.530;2022-12-10T02:23:03;80.80;;;29.33;;
59788;SDS011;47353;51.614;5.530;2022-12-10T02:25:37;85.37;;;29.27;;
59788;SDS011;47353;51.614;5.530;2022-12-10T02:31:00;75.80;;;27.43;;
59788;SDS011;47353;51.614;5.530;2022-12-10T02:33:26;89.57;;;31.47;;
59788;SDS011;47353;51.614;5.530;2022-12-10T02:35:54;85.67;;;30.93;;
59788;SDS011;47353;51.614;5.530;2022-12-10T02:38:32;90.20;;;31.43;;
59788;SDS011;47353;51.614;5.530;2022-12-10T02:41:08;89.17;;;30.90;;
59788;SDS011;47353;51.614;5.530;2022-12-10T02:43:53;71.33;;;25.13;;
59788;SDS011;47353;51.614;5.530;2022-12-10T02:46:22;86.97;;;29.67;;
59788;SDS011;47353;51.614;5.530;2022-12-10T02:48:53;86.53;;;30.70;;
59788;SDS011;47353;51.614;5.530;2022-12-10T02:51:20;83.93;;;31.93;;
59788;SDS011;47353;51.614;5.530;2022-12-10T02:53:45;88.13;;;31.43;;
59788;SDS011;47353;51.614;5.530;2022-12-10T02:56:18;92.90;;;32.73;;
59788;SDS011;47353;51.614;5.530;2022-12-10T03:01:18;97.40;;;31.63;;
59788;SDS011;47353;51.614;5.530;2022-12-10T03:03:52;92.53;;;31.03;;
59788;SDS011;47353;51.614;5.530;2022-12-10T03:09:06;86.50;;;30.87;;
59788;SDS011;47353;51.614;5.530;2022-12-10T03:11:37;82.53;;;28.30;;
59788;SDS011;47353;51.614;5.530;2022-12-10T03:19:39;83.87;;;27.23;;
59788;SDS011;47353;51.614;5.530;2022-12-10T03:22:07;82.60;;;28.20;;
59788;SDS011;47353;51.614;5.530;2022-12-10T03:24:36;82.10;;;29.47;;
59788;SDS011;47353;51.614;5.530;2022-12-10T03:27:03;97.93;;;30.40;;
59788;SDS011;47353;51.614;5.530;2022-12-10T03:29:32;87.10;;;29.33;;
59788;SDS011;47353;51.614;5.530;2022-12-10T03:32:02;86.23;;;28.67;;
59788;SDS011;47353;51.614;5.530;2022-12-10T03:34:28;100.00;;;28.77;;
59788;SDS011;47353;51.614;5.530;2022-12-10T03:36:53;86.73;;;29.13;;
59788;SDS011;47353;51.614;5.530;2022-12-10T03:39:20;87.20;;;27.63;;
59788;SDS011;47353;51.614;5.530;2022-12-10T03:41:45;84.57;;;27.23;;
59788;SDS011;47353;51.614;5.530;2022-12-10T03:44:11;98.30;;;28.70;;
59788;SDS011;47353;51.614;5.530;2022-12-10T03:46:37;101.77;;;28.93;;
59788;SDS011;47353;51.614;5.530;2022-12-10T03:49:04;86.53;;;28.87;;
59788;SDS011;47353;51.614;5.530;2022-12-10T03:51:30;96.90;;;30.13;;
59788;SDS011;47353;51.614;5.530;2022-12-10T03:53:55;105.30;;;30.13;;
59788;SDS011;47353;51.614;5.530;2022-12-10T03:56:21;135.63;;;33.20;;
59788;SDS011;47353;51.614;5.530;2022-12-10T03:58:46;101.53;;;30.67;;
59788;SDS011;47353;51.614;5.530;2022-12-10T04:01:12;109.17;;;30.57;;
59788;SDS011;47353;51.614;5.530;2022-12-10T04:03:38;119.77;;;30.67;;
59788;SDS011;47353;51.614;5.530;2022-12-10T04:06:11;98.57;;;31.23;;
59788;SDS011;47353;51.614;5.530;2022-12-10T04:08:41;100.67;;;29.77;;
59788;SDS011;47353;51.614;5.530;2022-12-10T04:11:08;111.17;;;32.20;;
59788;SDS011;47353;51.614;5.530;2022-12-10T04:13:36;106.27;;;31.27;;
59788;SDS011;47353;51.614;5.530;2022-12-10T04:16:21;102.83;;;31.40;;
59788;SDS011;47353;51.614;5.530;2022-12-10T04:19:01;128.80;;;31.10;;
59788;SDS011;47353;51.614;5.530;2022-12-10T04:21:29;118.67;;;32.27;;
59788;SDS011;47353;51.614;5.530;2022-12-10T04:24:14;103.40;;;31.37;;
59788;SDS011;47353;51.614;5.530;2022-12-10T04:27:01;333.67;;;33.33;;
59788;SDS011;47353;51.614;5.530;2022-12-10T04:29:30;197.07;;;32.63;;
59788;SDS011;47353;51.614;5.530;2022-12-10T04:31:56;138.10;;;31.70;;
59788;SDS011;47353;51.614;5.530;2022-12-10T04:34:22;126.53;;;31.67;;
59788;SDS011;47353;51.614;5.530;2022-12-10T04:36:49;122.53;;;32.40;;
59788;SDS011;47353;51.614;5.530;2022-12-10T04:39:14;131.97;;;33.53;;
59788;SDS011;47353;51.614;5.530;2022-12-10T04:41:41;145.07;;;32.80;;
59788;SDS011;47353;51.614;5.530;2022-12-10T04:44:10;136.77;;;32.40;;
59788;SDS011;47353;51.614;5.530;2022-12-10T04:46:36;142.83;;;32.07;;
59788;SDS011;47353;51.614;5.530;2022-12-10T04:49:02;228.40;;;32.67;;
59788;SDS011;47353;51.614;5.530;2022-12-10T04:51:28;133.27;;;31.47;;
59788;SDS011;47353;51.614;5.530;2022-12-10T04:53:54;201.30;;;33.13;;
59788;SDS011;47353;51.614;5.530;2022-12-10T04:56:19;162.93;;;30.60;;
59788;SDS011;47353;51.614;5.530;2022-12-10T04:58:45;277.77;;;34.50;;
59788;SDS011;47353;51.614;5.530;2022-12-10T05:01:10;121.50;;;28.80;;
59788;SDS011;47353;51.614;5.530;2022-12-10T05:03:36;110.53;;;22.37;;
59788;SDS011;47353;51.614;5.530;2022-12-10T05:06:06;162.53;;;33.43;;
59788;SDS011;47353;51.614;5.530;2022-12-10T05:08:33;141.23;;;32.63;;
59788;SDS011;47353;51.614;5.530;2022-12-10T05:11:03;184.53;;;35.17;;
59788;SDS011;47353;51.614;5.530;2022-12-10T05:15:57;104.00;;;28.73;;
59788;SDS011;47353;51.614;5.530;2022-12-10T05:18:25;224.70;;;29.93;;
59788;SDS011;47353;51.614;5.530;2022-12-10T05:20:51;173.67;;;32.33;;
59788;SDS011;47353;51.614;5.530;2022-12-10T05:23:16;220.50;;;31.17;;
59788;SDS011;47353;51.614;5.530;2022-12-10T05:28:39;210.80;;;33.20;;
59788;SDS011;47353;51.614;5.530;2022-12-10T05:31:13;181.50;;;33.00;;
59788;SDS011;47353;51.614;5.530;2022-12-10T05:36:05;160.07;;;32.03;;
59788;SDS011;47353;51.614;5.530;2022-12-10T05:38:31;383.47;;;37.60;;
59788;SDS011;47353;51.614;5.530;2022-12-10T05:41:01;144.27;;;30.43;;
59788;SDS011;47353;51.614;5.530;2022-12-10T05:43:28;146.27;;;32.03;;
59788;SDS011;47353;51.614;5.530;2022-12-10T05:45:53;162.43;;;32.63;;
59788;SDS011;47353;51.614;5.530;2022-12-10T05:48:18;216.80;;;34.97;;
59788;SDS011;47353;51.614;5.530;2022-12-10T05:50:44;225.77;;;32.37;;
59788;SDS011;47353;51.614;5.530;2022-12-10T05:53:10;172.40;;;29.93;;
59788;SDS011;47353;51.614;5.530;2022-12-10T05:55:38;142.80;;;32.67;;
59788;SDS011;47353;51.614;5.530;2022-12-10T05:58:04;143.47;;;32.77;;
59788;SDS011;47353;51.614;5.530;2022-12-10T06:00:29;184.30;;;33.40;;
59788;SDS011;47353;51.614;5.530;2022-12-10T06:02:55;159.27;;;33.47;;
59788;SDS011;47353;51.614;5.530;2022-12-10T06:05:21;160.97;;;32.83;;
59788;SDS011;47353;51.614;5.530;2022-12-10T06:07:46;133.00;;;31.43;;
59788;SDS011;47353;51.614;5.530;2022-12-10T06:10:11;145.43;;;33.10;;
59788;SDS011;47353;51.614;5.530;2022-12-10T06:12:37;139.93;;;30.23;;
59788;SDS011;47353;51.614;5.530;2022-12-10T06:15:04;155.13;;;30.53;;
59788;SDS011;47353;51.614;5.530;2022-12-10T06:17:30;152.47;;;31.50;;
59788;SDS011;47353;51.614;5.530;2022-12-10T06:19:56;117.47;;;23.77;;
59788;SDS011;47353;51.614;5.530;2022-12-10T06:22:22;167.87;;;34.93;;
59788;SDS011;47353;51.614;5.530;2022-12-10T06:24:47;139.87;;;31.47;;
59788;SDS011;47353;51.614;5.530;2022-12-10T06:27:13;104.87;;;27.63;;
59788;SDS011;47353;51.614;5.530;2022-12-10T06:29:38;159.60;;;30.57;;
59788;SDS011;47353;51.614;5.530;2022-12-10T06:32:04;133.90;;;30.90;;
59788;SDS011;47353;51.614;5.530;2022-12-10T06:34:29;212.20;;;29.10;;
59788;SDS011;47353;51.614;5.530;2022-12-10T06:36:54;162.47;;;35.20;;
59788;SDS011;47353;51.614;5.530;2022-12-10T06:39:20;151.13;;;33.07;;
59788;SDS011;47353;51.614;5.530;2022-12-10T06:41:45;170.50;;;33.47;;
59788;SDS011;47353;51.614;5.530;2022-12-10T06:44:11;186.03;;;32.67;;
59788;SDS011;47353;51.614;5.530;2022-12-10T06:46:37;184.50;;;36.10;;
59788;SDS011;47353;51.614;5.530;2022-12-10T06:49:04;135.40;;;30.57;;
59788;SDS011;47353;51.614;5.530;2022-12-10T06:51:29;163.10;;;30.60;;
59788;SDS011;47353;51.614;5.530;2022-12-10T06:53:54;182.87;;;36.13;;
59788;SDS011;47353;51.614;5.530;2022-12-10T06:56:20;215.03;;;34.80;;
59788;SDS011;47353;51.614;5.530;2022-12-10T06:58:45;155.53;;;30.20;;
59788;SDS011;47353;51.614;5.530;2022-12-10T07:01:12;153.23;;;28.90;;
59788;SDS011;47353;51.614;5.530;2022-12-10T07:03:40;152.53;;;30.13;;
59788;SDS011;47353;51.614;5.530;2022-12-10T07:06:06;149.20;;;31.43;;
59788;SDS011;47353;51.614;5.530;2022-12-10T07:08:33;126.83;;;29.07;;
59788;SDS011;47353;51.614;5.530;2022-12-10T07:11:02;132.00;;;29.77;;
59788;SDS011;47353;51.614;5.530;2022-12-10T07:13:29;119.60;;;25.73;;
59788;SDS011;47353;51.614;5.530;2022-12-10T07:15:54;137.67;;;29.10;;
59788;SDS011;47353;51.614;5.530;2022-12-10T07:18:19;154.53;;;32.80;;
59788;SDS011;47353;51.614;5.530;2022-12-10T07:20:45;122.83;;;29.50;;
59788;SDS011;47353;51.614;5.530;2022-12-10T07:23:10;117.90;;;26.77;;
59788;SDS011;47353;51.614;5.530;2022-12-10T07:25:35;97.13;;;24.97;;
59788;SDS011;47353;51.614;5.530;2022-12-10T07:28:01;104.10;;;27.27;;
59788;SDS011;47353;51.614;5.530;2022-12-10T07:30:26;110.73;;;27.23;;
59788;SDS011;47353;51.614;5.530;2022-12-10T07:32:51;117.93;;;27.53;;
59788;SDS011;47353;51.614;5.530;2022-12-10T07:35:17;109.73;;;23.57;;
59788;SDS011;47353;51.614;5.530;2022-12-10T07:37:42;131.47;;;27.57;;
59788;SDS011;47353;51.614;5.530;2022-12-10T07:40:08;132.53;;;25.00;;
59788;SDS011;47353;51.614;5.530;2022-12-10T07:42:34;115.00;;;27.33;;
59788;SDS011;47353;51.614;5.530;2022-12-10T07:44:59;122.37;;;23.97;;
59788;SDS011;47353;51.614;5.530;2022-12-10T07:47:24;110.37;;;25.97;;
59788;SDS011;47353;51.614;5.530;2022-12-10T07:49:50;136.73;;;25.43;;
59788;SDS011;47353;51.614;5.530;2022-12-10T07:52:15;186.57;;;28.23;;
59788;SDS011;47353;51.614;5.530;2022-12-10T07:54:41;187.17;;;28.17;;
59788;SDS011;47353;51.614;5.530;2022-12-10T07:57:06;192.83;;;26.87;;
59788;SDS011;47353;51.614;5.530;2022-12-10T07:59:31;234.77;;;29.00;;
59788;SDS011;47353;51.614;5.530;2022-12-10T08:01:57;131.97;;;27.10;;
59788;SDS011;47353;51.614;5.530;2022-12-10T08:04:22;162.80;;;28.47;;
59788;SDS011;47353;51.614;5.530;2022-12-10T08:06:48;152.13;;;29.50;;
59788;SDS011;47353;51.614;5.530;2022-12-10T08:09:13;127.30;;;27.70;;
59788;SDS011;47353;51.614;5.530;2022-12-10T08:11:39;139.07;;;30.23;;
59788;SDS011;47353;51.614;5.530;2022-12-10T08:14:04;137.50;;;29.93;;
59788;SDS011;47353;51.614;5.530;2022-12-10T08:16:30;123.50;;;28.40;;
59788;SDS011;47353;51.614;5.530;2022-12-10T08:18:59;142.90;;;29.50;;
59788;SDS011;47353;51.614;5.530;2022-12-10T08:21:26;170.27;;;28.37;;
59788;SDS011;47353;51.614;5.530;2022-12-10T08:23:54;120.90;;;29.23;;
59788;SDS011;47353;51.614;5.530;2022-12-10T08:26:21;173.00;;;29.60;;
59788;SDS011;47353;51.614;5.530;2022-12-10T08:28:49;133.73;;;28.73;;
59788;SDS011;47353;51.614;5.530;2022-12-10T08:31:16;118.33;;;28.90;;
59788;SDS011;47353;51.614;5.530;2022-12-10T08:33:43;119.43;;;28.60;;
59788;SDS011;47353;51.614;5.530;2022-12-10T08:36:09;123.23;;;25.97;;
59788;SDS011;47353;51.614;5.530;2022-12-10T08:38:37;113.03;;;27.33;;
59788;SDS011;47353;51.614;5.530;2022-12-10T08:41:09;118.80;;;27.70;;
59788;SDS011;47353;51.614;5.530;2022-12-10T08:43:40;133.13;;;29.23;;
59788;SDS011;47353;51.614;5.530;2022-12-10T08:46:05;133.90;;;25.63;;
59788;SDS011;47353;51.614;5.530;2022-12-10T08:48:31;140.63;;;29.20;;
59788;SDS011;47353;51.614;5.530;2022-12-10T08:50:57;147.13;;;30.77;;
59788;SDS011;47353;51.614;5.530;2022-12-10T08:53:23;127.37;;;28.70;;
59788;SDS011;47353;51.614;5.530;2022-12-10T08:55:50;137.43;;;30.93;;
59788;SDS011;47353;51.614;5.530;2022-12-10T08:58:16;118.80;;;27.07;;
59788;SDS011;47353;51.614;5.530;2022-12-10T09:00:41;127.47;;;30.13;;
59788;SDS011;47353;51.614;5.530;2022-12-10T09:03:08;109.17;;;26.87;;
59788;SDS011;47353;51.614;5.530;2022-12-10T09:05:34;135.87;;;30.17;;
59788;SDS011;47353;51.614;5.530;2022-12-10T09:08:00;168.13;;;32.80;;
59788;SDS011;47353;51.614;5.530;2022-12-10T09:10:25;149.37;;;28.10;;
59788;SDS011;47353;51.614;5.530;2022-12-10T09:12:51;184.53;;;31.70;;
59788;SDS011;47353;51.614;5.530;2022-12-10T09:15:16;177.93;;;32.90;;
59788;SDS011;47353;51.614;5.530;2022-12-10T09:17:41;143.97;;;24.17;;
59788;SDS011;47353;51.614;5.530;2022-12-10T09:20:07;125.33;;;27.27;;
59788;SDS011;47353;51.614;5.530;2022-12-10T09:22:32;128.33;;;28.60;;
59788;SDS011;47353;51.614;5.530;2022-12-10T09:25:02;128.73;;;23.70;;
59788;SDS011;47353;51.614;5.530;2022-12-10T09:27:29;177.50;;;29.63;;
59788;SDS011;47353;51.614;5.530;2022-12-10T09:29:55;129.60;;;25.37;;
59788;SDS011;47353;51.614;5.530;2022-12-10T09:32:20;155.27;;;28.90;;
59788;SDS011;47353;51.614;5.530;2022-12-10T09:34:46;156.80;;;31.20;;
59788;SDS011;47353;51.614;5.530;2022-12-10T09:37:11;145.70;;;30.30;;
59788;SDS011;47353;51.614;5.530;2022-12-10T09:39:36;133.67;;;26.53;;
59788;SDS011;47353;51.614;5.530;2022-12-10T09:47:14;127.77;;;31.30;;
59788;SDS011;47353;51.614;5.530;2022-12-10T09:49:58;128.53;;;28.87;;
59788;SDS011;47353;51.614;5.530;2022-12-10T09:52:36;132.27;;;30.67;;
59788;SDS011;47353;51.614;5.530;2022-12-10T09:55:10;120.73;;;27.90;;
59788;SDS011;47353;51.614;5.530;2022-12-10T09:57:40;130.38;;;28.55;;
59788;SDS011;47353;51.614;5.530;2022-12-10T10:00:19;112.97;;;28.37;;
59788;SDS011;47353;51.614;5.530;2022-12-10T10:02:55;105.90;;;26.97;;
59788;SDS011;47353;51.614;5.530;2022-12-10T10:05:25;113.83;;;27.73;;
59788;SDS011;47353;51.614;5.530;2022-12-10T10:08:01;115.17;;;30.00;;
59788;SDS011;47353;51.614;5.530;2022-12-10T10:10:30;110.47;;;29.60;;
59788;SDS011;47353;51.614;5.530;2022-12-10T10:13:09;106.73;;;26.93;;
59788;SDS011;47353;51.614;5.530;2022-12-10T10:15:41;102.67;;;25.77;;
59788;SDS011;47353;51.614;5.530;2022-12-10T10:20:42;107.23;;;26.13;;
59788;SDS011;47353;51.614;5.530;2022-12-10T10:23:08;106.23;;;27.83;;
59788;SDS011;47353;51.614;5.530;2022-12-10T10:25:39;103.37;;;27.97;;
59788;SDS011;47353;51.614;5.530;2022-12-10T10:28:05;81.30;;;22.13;;
59788;SDS011;47353;51.614;5.530;2022-12-10T10:30:35;98.63;;;25.47;;
59788;SDS011;47353;51.614;5.530;2022-12-10T10:33:01;93.40;;;25.63;;
59788;SDS011;47353;51.614;5.530;2022-12-10T10:35:34;108.63;;;28.03;;
59788;SDS011;47353;51.614;5.530;2022-12-10T10:38:13;98.40;;;23.87;;
59788;SDS011;47353;51.614;5.530;2022-12-10T10:40:46;107.97;;;27.37;;
59788;SDS011;47353;51.614;5.530;2022-12-10T10:43:18;86.00;;;23.70;;
59788;SDS011;47353;51.614;5.530;2022-12-10T10:48:20;103.57;;;26.23;;
59788;SDS011;47353;51.614;5.530;2022-12-10T10:50:49;88.87;;;23.23;;
59788;SDS011;47353;51.614;5.530;2022-12-10T10:53:24;102.77;;;25.30;;
59788;SDS011;47353;51.614;5.530;2022-12-10T10:55:51;77.80;;;22.23;;
59788;SDS011;47353;51.614;5.530;2022-12-10T10:58:19;99.10;;;26.80;;
59788;SDS011;47353;51.614;5.530;2022-12-10T11:00:58;96.37;;;25.60;;
59788;SDS011;47353;51.614;5.530;2022-12-10T11:03:26;81.57;;;22.33;;
59788;SDS011;47353;51.614;5.530;2022-12-10T11:05:54;84.17;;;22.67;;
59788;SDS011;47353;51.614;5.530;2022-12-10T11:08:21;84.70;;;22.97;;
59788;SDS011;47353;51.614;5.530;2022-12-10T11:10:52;78.57;;;22.63;;
59788;SDS011;47353;51.614;5.530;2022-12-10T11:13:26;90.37;;;23.87;;
59788;SDS011;47353;51.614;5.530;2022-12-10T11:15:57;94.73;;;24.80;;
59788;SDS011;47353;51.614;5.530;2022-12-10T11:18:35;94.70;;;23.77;;
59788;SDS011;47353;51.614;5.530;2022-12-10T11:23:41;96.17;;;25.17;;
59788;SDS011;47353;51.614;5.530;2022-12-10T11:29:24;97.73;;;23.83;;
59788;SDS011;47353;51.614;5.530;2022-12-10T11:35:05;80.90;;;20.67;;
59788;SDS011;47353;51.614;5.530;2022-12-10T11:53:57;60.10;;;16.90;;
59788;SDS011;47353;51.614;5.530;2022-12-10T11:56:39;78.20;;;22.07;;
59788;SDS011;47353;51.614;5.530;2022-12-10T12:02:28;81.00;;;22.93;;
59788;SDS011;47353;51.614;5.530;2022-12-10T12:05:06;72.83;;;21.33;;
59788;SDS011;47353;51.614;5.530;2022-12-10T12:07:53;83.77;;;22.53;;
59788;SDS011;47353;51.614;5.530;2022-12-10T12:10:42;83.80;;;23.57;;
59788;SDS011;47353;51.614;5.530;2022-12-10T12:13:22;82.23;;;23.33;;
59788;SDS011;47353;51.614;5.530;2022-12-10T12:18:28;91.90;;;25.43;;
59788;SDS011;47353;51.614;5.530;2022-12-10T12:21:07;93.50;;;23.23;;
59788;SDS011;47353;51.614;5.530;2022-12-10T12:29:41;81.40;;;22.17;;
59788;SDS011;47353;51.614;5.530;2022-12-10T12:32:17;85.47;;;24.87;;
59788;SDS011;47353;51.614;5.530;2022-12-10T12:34:49;96.33;;;24.10;;
59788;SDS011;47353;51.614;5.530;2022-12-10T12:37:18;76.07;;;21.10;;
59788;SDS011;47353;51.614;5.530;2022-12-10T12:43:16;78.57;;;22.43;;
59788;SDS011;47353;51.614;5.530;2022-12-10T12:45:46;82.10;;;20.83;;
59788;SDS011;47353;51.614;5.530;2022-12-10T12:51:02;85.97;;;23.63;;
59788;SDS011;47353;51.614;5.530;2022-12-10T12:53:30;94.07;;;23.53;;
59788;SDS011;47353;51.614;5.530;2022-12-10T12:55:58;90.50;;;24.13;;
59788;SDS011;47353;51.614;5.530;2022-12-10T13:01:30;80.07;;;22.93;;
59788;SDS011;47353;51.614;5.530;2022-12-10T13:03:57;78.20;;;22.10;;
59788;SDS011;47353;51.614;5.530;2022-12-10T13:06:27;83.40;;;22.87;;
59788;SDS011;47353;51.614;5.530;2022-12-10T13:14:36;77.53;;;22.77;;
59788;SDS011;47353;51.614;5.530;2022-12-10T13:17:37;78.47;;;23.50;;
59788;SDS011;47353;51.614;5.530;2022-12-10T13:22:54;70.03;;;21.73;;
59788;SDS011;47353;51.614;5.530;2022-12-10T13:28:37;72.00;;;21.67;;
59788;SDS011;47353;51.614;5.530;2022-12-10T13:36:26;70.67;;;22.17;;
59788;SDS011;47353;51.614;5.530;2022-12-10T13:39:11;69.63;;;21.43;;
59788;SDS011;47353;51.614;5.530;2022-12-10T13:42:32;76.97;;;22.73;;
59788;SDS011;47353;51.614;5.530;2022-12-10T13:50:01;68.50;;;21.77;;
59788;SDS011;47353;51.614;5.530;2022-12-10T13:52:30;72.17;;;22.60;;
59788;SDS011;47353;51.614;5.530;2022-12-10T14:00:20;69.43;;;20.13;;
59788;SDS011;47353;51.614;5.530;2022-12-10T14:08:32;73.07;;;20.10;;
59788;SDS011;47353;51.614;5.530;2022-12-10T14:11:00;65.23;;;19.17;;
59788;SDS011;47353;51.614;5.530;2022-12-10T14:13:43;64.23;;;19.00;;
59788;SDS011;47353;51.614;5.530;2022-12-10T14:16:13;62.70;;;19.60;;
59788;SDS011;47353;51.614;5.530;2022-12-10T14:18:43;62.93;;;19.70;;
59788;SDS011;47353;51.614;5.530;2022-12-10T14:21:16;58.43;;;19.70;;
59788;SDS011;47353;51.614;5.530;2022-12-10T14:23:44;74.53;;;21.80;;
59788;SDS011;47353;51.614;5.530;2022-12-10T14:26:22;68.97;;;20.47;;
59788;SDS011;47353;51.614;5.530;2022-12-10T14:28:56;67.43;;;20.67;;
59788;SDS011;47353;51.614;5.530;2022-12-10T14:31:30;69.77;;;20.17;;
59788;SDS011;47353;51.614;5.530;2022-12-10T14:34:00;73.40;;;21.33;;
59788;SDS011;47353;51.614;5.530;2022-12-10T14:36:43;80.55;;;24.45;;
59788;SDS011;47353;51.614;5.530;2022-12-10T14:39:14;70.27;;;20.23;;
59788;SDS011;47353;51.614;5.530;2022-12-10T14:41:43;71.68;;;22.10;;
59788;SDS011;47353;51.614;5.530;2022-12-10T14:44:11;69.20;;;21.43;;
59788;SDS011;47353;51.614;5.530;2022-12-10T14:46:39;64.00;;;20.13;;
59788;SDS011;47353;51.614;5.530;2022-12-10T14:49:04;66.50;;;19.73;;
59788;SDS011;47353;51.614;5.530;2022-12-10T14:51:33;69.37;;;20.27;;
59788;SDS011;47353;51.614;5.530;2022-12-10T14:54:02;68.87;;;20.30;;
59788;SDS011;47353;51.614;5.530;2022-12-10T14:56:31;69.70;;;20.40;;
59788;SDS011;47353;51.614;5.530;2022-12-10T15:01:45;70.73;;;20.17;;
59788;SDS011;47353;51.614;5.530;2022-12-10T15:04:18;71.80;;;21.90;;
59788;SDS011;47353;51.614;5.530;2022-12-10T15:06:44;75.80;;;21.93;;
59788;SDS011;47353;51.614;5.530;2022-12-10T15:09:20;79.97;;;19.63;;
59788;SDS011;47353;51.614;5.530;2022-12-10T15:11:52;84.27;;;22.37;;
59788;SDS011;47353;51.614;5.530;2022-12-10T15:14:19;76.63;;;21.37;;
59788;SDS011;47353;51.614;5.530;2022-12-10T15:16:46;77.53;;;20.67;;
59788;SDS011;47353;51.614;5.530;2022-12-10T15:19:23;85.53;;;21.97;;
59788;SDS011;47353;51.614;5.530;2022-12-10T15:21:50;79.37;;;21.73;;
59788;SDS011;47353;51.614;5.530;2022-12-10T15:26:50;70.20;;;20.27;;
59788;SDS011;47353;51.614;5.530;2022-12-10T15:31:48;66.50;;;19.33;;
59788;SDS011;47353;51.614;5.530;2022-12-10T15:34:19;78.43;;;20.33;;
59788;SDS011;47353;51.614;5.530;2022-12-10T15:36:49;74.47;;;19.60;;
59788;SDS011;47353;51.614;5.530;2022-12-10T15:39:17;89.87;;;23.27;;
59788;SDS011;47353;51.614;5.530;2022-12-10T15:41:50;79.63;;;21.67;;
59788;SDS011;47353;51.614;5.530;2022-12-10T15:44:27;85.23;;;21.90;;
59788;SDS011;47353;51.614;5.530;2022-12-10T15:50:03;79.70;;;19.40;;
59788;SDS011;47353;51.614;5.530;2022-12-10T15:52:30;84.27;;;22.90;;
59788;SDS011;47353;51.614;5.530;2022-12-10T15:54:56;86.07;;;22.27;;
59788;SDS011;47353;51.614;5.530;2022-12-10T15:57:24;92.00;;;24.33;;
59788;SDS011;47353;51.614;5.530;2022-12-10T15:59:53;88.10;;;22.90;;
59788;SDS011;47353;51.614;5.530;2022-12-10T16:05:13;85.20;;;21.13;;
59788;SDS011;47353;51.614;5.530;2022-12-10T16:07:41;96.37;;;23.07;;
59788;SDS011;47353;51.614;5.530;2022-12-10T16:10:09;98.27;;;23.80;;
59788;SDS011;47353;51.614;5.530;2022-12-10T16:12:35;89.80;;;23.83;;
59788;SDS011;47353;51.614;5.530;2022-12-10T16:15:02;93.93;;;24.77;;
59788;SDS011;47353;51.614;5.530;2022-12-10T16:17:29;97.63;;;24.27;;
59788;SDS011;47353;51.614;5.530;2022-12-10T16:22:38;108.63;;;23.80;;
59788;SDS011;47353;51.614;5.530;2022-12-10T16:25:04;97.73;;;24.77;;
59788;SDS011;47353;51.614;5.530;2022-12-10T16:27:30;95.67;;;23.77;;
59788;SDS011;47353;51.614;5.530;2022-12-10T16:29:57;107.07;;;25.03;;
59788;SDS011;47353;51.614;5.530;2022-12-10T16:32:23;99.07;;;24.53;;
59788;SDS011;47353;51.614;5.530;2022-12-10T16:34:48;99.67;;;24.63;;
59788;SDS011;47353;51.614;5.530;2022-12-10T16:37:15;107.03;;;25.37;;
59788;SDS011;47353;51.614;5.530;2022-12-10T16:39:40;112.33;;;26.20;;
59788;SDS011;47353;51.614;5.530;2022-12-10T16:42:08;100.20;;;23.10;;
59788;SDS011;47353;51.614;5.530;2022-12-10T16:44:36;96.07;;;24.50;;
59788;SDS011;47353;51.614;5.530;2022-12-10T16:47:04;99.20;;;23.13;;
59788;SDS011;47353;51.614;5.530;2022-12-10T16:49:36;93.50;;;22.30;;